Genesis Valiant — WDG9348 — position and weather

sailwx.info

Track history (hours):
 
Tides and Currents Weather Stations Pressure Air Temp Water Temp Dewpoint Dewpoint Depression Visibility Wind Speed Wind Dir Waves Ship Positions

Genesis Valiant

Owner: Genesis Marine, LLC, Houston, TX. More information available from US FCC via Universal Licensing System and Coast Guard Vessel Documentation Center.

Last reported at 2017-Oct-19 18:00 UTC. Time now 2017-Oct-19 18:20 UTC.
Position N 39°14' W 076°33'.

Length 30 m; draft 5 m.

Type: Towing. MMSI: 338495000.

Date/timePositionNaut miles runAvg speedWind from/ knotsBaromVisibWave heightAir tempDewpointWater temp
2017-Oct-19 18:00N 39°14' W 076°33'0 0.0
2017-Oct-19 17:31N 39°14' W 076°33'0 0.1
2017-Oct-19 17:00N 39°14' W 076°33'0 0.0
2017-Oct-19 16:31N 39°14' W 076°33'0 0.0
2017-Oct-19 16:01N 39°14' W 076°33'0 0.0
2017-Oct-19 15:31N 39°14' W 076°33'0 0.0
2017-Oct-19 15:00N 39°14' W 076°33'0 0.0
2017-Oct-19 14:31N 39°14' W 076°33'0 0.0
2017-Oct-19 14:00N 39°14' W 076°33'0 0.0
2017-Oct-19 13:30N 39°14' W 076°33'0 0.1
2017-Oct-19 13:01N 39°13' W 076°33'3 6.0
2017-Oct-19 12:30N 39°12' W 076°30'4 8.3
2017-Oct-19 12:00N 39°10' W 076°25'4 7.5
2017-Oct-19 11:30N 39°09' W 076°20'4 7.2
2017-Oct-19 11:00N 39°11' W 076°17'4 7.6
2017-Oct-19 10:30N 39°14' W 076°14'4 7.5
2017-Oct-19 10:00N 39°18' W 076°13'4 7.0
2017-Oct-19 09:30N 39°21' W 076°10'4 7.4
2017-Oct-19 09:00N 39°23' W 076°06'4 8.1
2017-Oct-19 08:30N 39°25' W 076°02'4 8.6
2017-Oct-19 08:00N 39°28' W 075°58'4 8.7
2017-Oct-19 07:30N 39°31' W 075°54'4 8.0
2017-Oct-19 07:00N 39°32' W 075°49'5 9.0
2017-Oct-19 06:30N 39°33' W 075°43'4 9.0
2017-Oct-19 06:00N 39°33' W 075°37'3 6.6
2017-Oct-19 05:30N 39°35' W 075°33'3 6.8
2017-Oct-19 05:00N 39°38' W 075°34'4 7.4
2017-Oct-19 04:30N 39°41' W 075°31'4 7.4
2017-Oct-19 04:01N 39°44' W 075°30'3 6.7
2017-Oct-19 03:30N 39°47' W 075°27'3 6.8
2017-Oct-19 03:00N 39°49' W 075°24'3 6.2
2017-Oct-19 02:30N 39°51' W 075°21'3 6.5
2017-Oct-19 02:00N 39°51' W 075°16'4 7.1
2017-Oct-19 01:30N 39°53' W 075°12'3 5.9
2017-Oct-19 00:58N 39°54' W 075°08'0 0.1
2017-Oct-19 00:30N 39°54' W 075°08'0 0.0
2017-Oct-19 00:00N 39°54' W 075°08'0 0.0
2017-Oct-18 23:30N 39°54' W 075°08'0 0.0
2017-Oct-18 23:00N 39°54' W 075°08'0 0.0
2017-Oct-18 22:30N 39°54' W 075°08'0 0.0
2017-Oct-18 22:00N 39°54' W 075°08'0 0.0
2017-Oct-18 21:28N 39°54' W 075°08'0 0.0
2017-Oct-18 20:58N 39°54' W 075°08'0 0.0
2017-Oct-18 20:28N 39°54' W 075°08'0 0.0
2017-Oct-18 19:58N 39°54' W 075°08'0 0.0
2017-Oct-18 19:28N 39°54' W 075°08'0 0.0
2017-Oct-18 19:00N 39°54' W 075°08'2 3.8
2017-Oct-18 18:28N 39°53' W 075°11'0 0.0
2017-Oct-18 17:58N 39°53' W 075°11'0 0.0
2017-Oct-18 17:28N 39°53' W 075°11'0 0.0
2017-Oct-18 16:58N 39°53' W 075°11'0 0.0
2017-Oct-18 16:28N 39°53' W 075°11'0 0.2
2017-Oct-18 15:58N 39°53' W 075°11'0 0.0
2017-Oct-18 15:28N 39°53' W 075°11'0 0.0
2017-Oct-18 14:58N 39°53' W 075°11'0 0.0
2017-Oct-18 13:58N 39°53' W 075°11'0 0.0
2017-Oct-18 13:28N 39°53' W 075°11'0 0.1
2017-Oct-18 12:58N 39°53' W 075°11'2 4.2
2017-Oct-18 12:31N 39°53' W 075°08'0 0.6
2017-Oct-18 12:00N 39°54' W 075°08'0 0.0
2017-Oct-18 11:30N 39°54' W 075°08'0 0.0
2017-Oct-18 11:00N 39°54' W 075°08'0 0.0
2017-Oct-18 10:30N 39°54' W 075°08'0 0.0
2017-Oct-18 10:00N 39°54' W 075°08'0 0.0
2017-Oct-18 09:30N 39°54' W 075°08'0 0.0
2017-Oct-18 09:00N 39°54' W 075°08'0 0.0
2017-Oct-18 08:30N 39°54' W 075°08'0 0.0
2017-Oct-18 08:00N 39°54' W 075°08'0 0.0
2017-Oct-18 07:30N 39°54' W 075°08'0 0.0
2017-Oct-18 07:00N 39°54' W 075°08'0 0.0
2017-Oct-18 06:30N 39°54' W 075°08'0 0.0
2017-Oct-18 06:00N 39°54' W 075°08'0 0.0
2017-Oct-18 05:30N 39°54' W 075°08'1 1.3
2017-Oct-18 05:00N 39°53' W 075°09'3 5.4
2017-Oct-18 04:31N 39°53' W 075°12'1 3.0
2017-Oct-18 04:00N 39°52' W 075°13'0 0.0
2017-Oct-18 03:30N 39°52' W 075°13'0 0.0
2017-Oct-18 03:01N 39°52' W 075°13'0 0.0
2017-Oct-18 02:31N 39°52' W 075°13'0 0.0
2017-Oct-18 02:01N 39°52' W 075°13'0 0.0
2017-Oct-18 01:30N 39°52' W 075°13'0 0.0
2017-Oct-18 01:01N 39°52' W 075°13'0 0.0
2017-Oct-18 00:30N 39°52' W 075°13'0 0.1
2017-Oct-18 00:01N 39°52' W 075°14'0 0.2
2017-Oct-17 23:31N 39°52' W 075°14'0 0.1
2017-Oct-17 23:00N 39°52' W 075°14'0 0.0
2017-Oct-17 22:31N 39°52' W 075°14'0 0.1
2017-Oct-17 22:00N 39°52' W 075°14'0 0.0
2017-Oct-17 21:30N 39°52' W 075°14'0 0.1
2017-Oct-17 21:01N 39°51' W 075°14'0 0.0
2017-Oct-17 20:30N 39°51' W 075°14'0 0.0
2017-Oct-17 20:00N 39°51' W 075°14'0 0.0
2017-Oct-17 19:30N 39°51' W 075°14'0 0.1
2017-Oct-17 19:01N 39°52' W 075°14'0 0.1
2017-Oct-17 18:31N 39°52' W 075°14'0 0.1
2017-Oct-17 18:00N 39°52' W 075°14'0 0.1
2017-Oct-17 17:31N 39°52' W 075°13'0 0.0
2017-Oct-17 17:01N 39°52' W 075°13'0 0.0
2017-Oct-17 16:30N 39°52' W 075°13'0 0.0
2017-Oct-17 16:00N 39°52' W 075°13'0 0.0
2017-Oct-17 15:30N 39°52' W 075°13'0 0.0
2017-Oct-17 15:00N 39°52' W 075°13'0 0.0
2017-Oct-17 14:31N 39°52' W 075°13'0 0.1
2017-Oct-17 14:00N 39°52' W 075°13'0 0.1
2017-Oct-17 13:31N 39°52' W 075°13'0 0.0
2017-Oct-17 13:00N 39°52' W 075°13'0 0.0
2017-Oct-17 12:31N 39°52' W 075°13'0 0.1
2017-Oct-17 12:01N 39°51' W 075°13'0 0.1
2017-Oct-17 11:30N 39°51' W 075°14'0 0.1
2017-Oct-17 11:01N 39°51' W 075°14'0 0.0
2017-Oct-17 10:31N 39°51' W 075°14'0 0.0
2017-Oct-17 10:01N 39°51' W 075°14'0 0.0
2017-Oct-17 09:30N 39°51' W 075°14'0 0.0
2017-Oct-17 09:01N 39°51' W 075°14'0 0.0
2017-Oct-17 08:31N 39°51' W 075°14'0 0.0
2017-Oct-17 08:00N 39°51' W 075°14'0 0.0
2017-Oct-17 07:31N 39°51' W 075°14'0 0.0
2017-Oct-17 07:00N 39°51' W 075°14'0 0.0
2017-Oct-17 06:31N 39°51' W 075°14'0 0.0
2017-Oct-17 06:01N 39°51' W 075°14'0 0.1
2017-Oct-17 05:31N 39°51' W 075°14'0 0.0
2017-Oct-17 05:01N 39°51' W 075°14'0 0.1
2017-Oct-17 04:30N 39°51' W 075°14'0 0.0
2017-Oct-17 04:00N 39°51' W 075°13'0 0.0
2017-Oct-17 03:30N 39°51' W 075°13'0 0.1
2017-Oct-17 03:01N 39°52' W 075°13'0 0.1
2017-Oct-17 02:30N 39°52' W 075°13'0 0.0
2017-Oct-17 02:00N 39°52' W 075°13'0 0.0
2017-Oct-17 01:31N 39°52' W 075°13'0 0.0
2017-Oct-17 01:00N 39°52' W 075°13'0 0.0
2017-Oct-17 00:31N 39°52' W 075°13'0 0.0
2017-Oct-17 00:01N 39°52' W 075°13'0 0.1
2017-Oct-16 23:31N 39°52' W 075°13'0 0.1
2017-Oct-16 23:00N 39°51' W 075°14'0 0.0
2017-Oct-16 22:31N 39°51' W 075°14'0 0.1
2017-Oct-16 22:01N 39°51' W 075°14'0 0.1
2017-Oct-16 21:31N 39°51' W 075°14'0 0.0
2017-Oct-16 21:00N 39°51' W 075°14'0 0.1
2017-Oct-16 20:30N 39°51' W 075°14'0 0.0
2017-Oct-16 20:00N 39°51' W 075°14'0 0.0
2017-Oct-16 19:31N 39°51' W 075°14'0 0.0
2017-Oct-16 19:00N 39°51' W 075°14'0 0.0
2017-Oct-16 18:30N 39°51' W 075°14'0 0.0
2017-Oct-16 18:01N 39°51' W 075°14'0 0.0
2017-Oct-16 17:30N 39°51' W 075°14'0 0.1
2017-Oct-16 17:01N 39°51' W 075°14'0 0.1
2017-Oct-16 16:30N 39°51' W 075°13'0 0.1
2017-Oct-16 16:01N 39°51' W 075°14'0 0.1
2017-Oct-16 15:30N 39°51' W 075°13'0 0.1
2017-Oct-16 15:01N 39°51' W 075°14'1 1.2
2017-Oct-16 14:00N 39°51' W 075°15'0 0.0
2017-Oct-16 13:30N 39°51' W 075°15'0 0.0
2017-Oct-16 13:01N 39°51' W 075°15'0 0.0
2017-Oct-16 12:31N 39°51' W 075°15'0 0.0
2017-Oct-16 12:00N 39°51' W 075°15'0 0.0
2017-Oct-16 11:31N 39°51' W 075°15'0 0.0
2017-Oct-16 11:00N 39°51' W 075°15'0 0.0
2017-Oct-16 10:30N 39°51' W 075°15'0 0.0
2017-Oct-16 10:00N 39°51' W 075°15'0 0.0
2017-Oct-16 09:30N 39°51' W 075°15'0 0.0
2017-Oct-16 09:00N 39°51' W 075°15'0 0.0
2017-Oct-16 08:31N 39°51' W 075°15'0 0.0
2017-Oct-16 08:00N 39°51' W 075°15'0 0.0
2017-Oct-16 07:30N 39°51' W 075°15'0 0.0
2017-Oct-16 07:01N 39°51' W 075°15'0 0.0
2017-Oct-16 06:30N 39°51' W 075°15'0 0.0
2017-Oct-16 06:00N 39°51' W 075°15'0 0.0
2017-Oct-16 05:31N 39°51' W 075°15'0 0.0
2017-Oct-16 05:01N 39°51' W 075°15'0 0.0
2017-Oct-16 04:31N 39°51' W 075°15'0 0.0
2017-Oct-16 04:01N 39°51' W 075°15'0 0.0
2017-Oct-16 03:31N 39°51' W 075°15'0 0.0
2017-Oct-16 03:00N 39°51' W 075°15'0 0.0
2017-Oct-16 02:31N 39°51' W 075°15'0 0.0
2017-Oct-16 02:00N 39°51' W 075°15'0 0.0
2017-Oct-16 01:31N 39°51' W 075°15'0 0.0
2017-Oct-16 01:00N 39°51' W 075°15'0 0.0
2017-Oct-16 00:31N 39°51' W 075°15'0 0.0
2017-Oct-16 00:00N 39°51' W 075°15'0 0.0
2017-Oct-15 23:31N 39°51' W 075°15'0 0.5
2017-Oct-15 23:00N 39°51' W 075°15'3 7.0
2017-Oct-15 22:30N 39°53' W 075°11'2 4.3
2017-Oct-15 22:01N 39°54' W 075°08'0 0.2
2017-Oct-15 21:30N 39°54' W 075°08'0 0.0
2017-Oct-15 21:00N 39°54' W 075°08'0 0.0
2017-Oct-15 20:31N 39°54' W 075°08'0 0.0
2017-Oct-15 20:01N 39°54' W 075°08'0 0.0
2017-Oct-15 19:31N 39°54' W 075°08'0 0.0
2017-Oct-15 19:01N 39°54' W 075°08'0 0.0
2017-Oct-15 18:30N 39°54' W 075°08'0 0.0
2017-Oct-15 18:00N 39°54' W 075°08'0 0.0
2017-Oct-15 17:30N 39°54' W 075°08'0 0.0
2017-Oct-15 17:00N 39°54' W 075°08'0 0.0
2017-Oct-15 16:30N 39°54' W 075°08'0 0.1
2017-Oct-15 16:00N 39°54' W 075°08'0 0.0
2017-Oct-15 15:30N 39°54' W 075°08'0 0.0
2017-Oct-15 15:00N 39°54' W 075°08'0 0.0
2017-Oct-15 14:00N 39°54' W 075°08'0 0.0
2017-Oct-15 13:30N 39°54' W 075°08'0 0.0
2017-Oct-15 13:00N 39°54' W 075°08'0 0.0
2017-Oct-15 12:30N 39°54' W 075°08'0 0.0
2017-Oct-15 12:00N 39°54' W 075°08'0 0.0
2017-Oct-15 11:30N 39°54' W 075°08'0 0.0
2017-Oct-15 11:00N 39°54' W 075°08'0 0.0
2017-Oct-15 10:30N 39°54' W 075°08'0 0.0
2017-Oct-15 10:00N 39°54' W 075°08'0 0.0
2017-Oct-15 09:30N 39°54' W 075°08'0 0.0
2017-Oct-15 09:00N 39°54' W 075°08'0 0.0
2017-Oct-15 08:30N 39°54' W 075°08'0 0.0
2017-Oct-15 08:00N 39°54' W 075°08'0 0.0
2017-Oct-15 07:30N 39°54' W 075°08'0 0.0
2017-Oct-15 07:00N 39°54' W 075°08'0 0.0
2017-Oct-15 06:30N 39°54' W 075°08'0 0.0
2017-Oct-15 06:00N 39°54' W 075°08'0 0.0
2017-Oct-15 05:31N 39°54' W 075°08'0 0.0
2017-Oct-15 05:00N 39°54' W 075°08'0 0.0
2017-Oct-15 04:30N 39°54' W 075°08'0 0.0
2017-Oct-15 04:00N 39°54' W 075°08'0 0.0
2017-Oct-15 03:30N 39°54' W 075°08'0 0.0
2017-Oct-15 03:00N 39°54' W 075°08'0 0.1
2017-Oct-15 02:30N 39°54' W 075°08'0 0.0
2017-Oct-15 02:00N 39°54' W 075°08'0 0.0
2017-Oct-15 01:30N 39°54' W 075°08'0 0.0
2017-Oct-15 01:00N 39°54' W 075°08'0 0.0
2017-Oct-15 00:30N 39°54' W 075°08'0 0.0
2017-Oct-15 00:00N 39°54' W 075°08'0 0.0
2017-Oct-14 23:30N 39°54' W 075°08'0 0.0
2017-Oct-14 23:00N 39°54' W 075°08'0 0.0
2017-Oct-14 22:30N 39°54' W 075°08'0 0.0
2017-Oct-14 22:00N 39°54' W 075°08'0 0.0
2017-Oct-14 21:30N 39°54' W 075°08'0 0.2
2017-Oct-14 21:01N 39°54' W 075°08'2 3.8
2017-Oct-14 20:30N 39°53' W 075°10'2 4.8
2017-Oct-14 20:00N 39°52' W 075°13'2 4.8
2017-Oct-14 19:30N 39°51' W 075°16'2 4.9
2017-Oct-14 19:00N 39°51' W 075°19'3 5.2
2017-Oct-14 18:30N 39°50' W 075°22'2 5.0
2017-Oct-14 18:01N 39°48' W 075°25'3 5.2
2017-Oct-14 17:30N 39°47' W 075°28'2 4.8
2017-Oct-14 17:00N 39°45' W 075°30'2 4.6
2017-Oct-14 16:31N 39°43' W 075°31'3 5.1
2017-Oct-14 16:01N 39°40' W 075°32'3 5.2
2017-Oct-14 15:31N 39°38' W 075°34'2 4.5
2017-Oct-14 15:00N 39°36' W 075°34'3 5.2
2017-Oct-14 14:31N 39°34' W 075°33'3 5.2
2017-Oct-14 14:01N 39°35' W 075°36'0 0.0
2017-Oct-14 13:30N 39°35' W 075°36'0 0.0
2017-Oct-14 13:01N 39°35' W 075°36'0 0.0
2017-Oct-14 12:31N 39°35' W 075°36'0 0.0
2017-Oct-14 12:00N 39°35' W 075°36'0 0.0
2017-Oct-14 11:30N 39°35' W 075°36'0 0.0
2017-Oct-14 11:00N 39°35' W 075°36'0 0.0
2017-Oct-14 10:31N 39°35' W 075°36'0 0.0
2017-Oct-14 10:01N 39°35' W 075°36'0 0.0
2017-Oct-14 09:31N 39°35' W 075°36'0 0.0
2017-Oct-14 09:00N 39°35' W 075°36'0 0.0
2017-Oct-14 08:31N 39°35' W 075°36'0 0.0
2017-Oct-14 08:01N 39°35' W 075°36'0 0.0
2017-Oct-14 07:31N 39°35' W 075°36'0 0.0
2017-Oct-14 07:01N 39°35' W 075°36'0 0.0
2017-Oct-14 06:31N 39°35' W 075°36'0 0.0
2017-Oct-14 06:01N 39°35' W 075°36'0 0.0
2017-Oct-14 05:31N 39°35' W 075°36'0 0.0
2017-Oct-14 05:01N 39°35' W 075°36'0 0.0
2017-Oct-14 04:30N 39°35' W 075°36'0 0.0
2017-Oct-14 04:00N 39°35' W 075°36'0 0.0
2017-Oct-14 03:31N 39°35' W 075°36'0 0.0
2017-Oct-14 03:00N 39°35' W 075°36'0 0.0
2017-Oct-14 02:31N 39°35' W 075°36'0 0.0
2017-Oct-14 02:01N 39°35' W 075°36'0 0.0
2017-Oct-14 01:28N 39°35' W 075°36'0 0.0
2017-Oct-14 01:01N 39°35' W 075°36'0 0.0
2017-Oct-14 00:30N 39°35' W 075°36'1 1.6
2017-Oct-14 00:01N 39°35' W 075°35'2 4.4
2017-Oct-13 23:30N 39°33' W 075°33'0 0.0
2017-Oct-13 23:01N 39°33' W 075°33'0 0.0
2017-Oct-13 22:31N 39°33' W 075°33'0 0.0
2017-Oct-13 22:01N 39°33' W 075°33'0 0.0
2017-Oct-13 21:31N 39°33' W 075°33'0 0.0
2017-Oct-13 21:01N 39°33' W 075°33'0 0.0
2017-Oct-13 20:31N 39°33' W 075°33'0 0.0
2017-Oct-13 20:01N 39°33' W 075°33'0 0.1
2017-Oct-13 19:31N 39°33' W 075°33'0 0.1
2017-Oct-13 19:01N 39°33' W 075°33'0 0.1
2017-Oct-13 18:31N 39°33' W 075°33'0 0.2
2017-Oct-13 18:00N 39°33' W 075°33'0 0.1
2017-Oct-13 17:30N 39°33' W 075°33'0 0.0
2017-Oct-13 17:01N 39°33' W 075°33'0 0.0
2017-Oct-13 16:30N 39°33' W 075°33'0 0.0
2017-Oct-13 16:01N 39°33' W 075°33'0 0.0
2017-Oct-13 15:31N 39°33' W 075°33'0 0.1
2017-Oct-13 15:01N 39°33' W 075°33'4 7.2
2017-Oct-13 14:30N 39°36' W 075°34'5 9.5
2017-Oct-13 14:00N 39°40' W 075°32'5 9.8
2017-Oct-13 13:30N 39°45' W 075°29'4 8.7
2017-Oct-13 13:01N 39°48' W 075°25'4 8.1
2017-Oct-13 12:31N 39°50' W 075°21'4 7.5
2017-Oct-13 12:00N 39°51' W 075°16'1 1.8
2017-Oct-13 11:30N 39°51' W 075°15'0 0.0
2017-Oct-13 11:00N 39°51' W 075°15'0 0.0
2017-Oct-13 10:31N 39°51' W 075°15'0 0.0
2017-Oct-13 10:01N 39°51' W 075°15'0 0.0
2017-Oct-13 09:30N 39°51' W 075°15'0 0.0
2017-Oct-13 09:00N 39°51' W 075°15'0 0.0
2017-Oct-13 08:30N 39°51' W 075°15'0 0.0
2017-Oct-13 08:00N 39°51' W 075°15'0 0.0
2017-Oct-13 07:31N 39°51' W 075°15'0 0.0
2017-Oct-13 07:00N 39°51' W 075°15'0 0.0
2017-Oct-13 06:31N 39°51' W 075°15'0 0.0
2017-Oct-13 06:01N 39°51' W 075°15'0 0.0
2017-Oct-13 05:30N 39°51' W 075°15'0 0.0
2017-Oct-13 05:00N 39°51' W 075°15'0 0.0
2017-Oct-13 04:30N 39°51' W 075°15'0 0.0
2017-Oct-13 04:01N 39°51' W 075°15'0 0.0
2017-Oct-13 03:31N 39°51' W 075°15'0 0.0
2017-Oct-13 03:01N 39°51' W 075°15'0 0.0
2017-Oct-13 02:31N 39°51' W 075°15'0 0.0
2017-Oct-13 02:00N 39°51' W 075°15'0 0.0
2017-Oct-13 01:30N 39°51' W 075°15'0 0.0
2017-Oct-13 01:01N 39°51' W 075°15'0 0.0
2017-Oct-13 00:30N 39°51' W 075°15'0 0.0
2017-Oct-13 00:00N 39°51' W 075°15'0 0.6
2017-Oct-12 23:30N 39°51' W 075°15'2 3.8
2017-Oct-12 23:00N 39°52' W 075°13'0 0.0
2017-Oct-12 22:31N 39°52' W 075°13'0 0.0
2017-Oct-12 22:00N 39°52' W 075°13'0 0.0
2017-Oct-12 21:31N 39°52' W 075°13'0 0.1
2017-Oct-12 21:01N 39°52' W 075°13'0 0.0
2017-Oct-12 20:30N 39°52' W 075°13'0 0.1
2017-Oct-12 20:01N 39°52' W 075°13'0 0.1
2017-Oct-12 19:31N 39°52' W 075°13'0 0.1
2017-Oct-12 19:01N 39°52' W 075°13'0 0.1
2017-Oct-12 18:31N 39°52' W 075°13'0 0.0
2017-Oct-12 18:01N 39°52' W 075°13'0 0.1
2017-Oct-12 17:30N 39°52' W 075°13'0 0.0
2017-Oct-12 17:01N 39°52' W 075°13'0 0.0
2017-Oct-12 16:30N 39°52' W 075°13'0 0.0
2017-Oct-12 16:01N 39°52' W 075°13'0 0.0
2017-Oct-12 15:31N 39°52' W 075°13'0 0.1
2017-Oct-12 15:00N 39°52' W 075°13'0 0.0
2017-Oct-12 14:31N 39°52' W 075°13'0 0.1
2017-Oct-12 14:00N 39°52' W 075°13'0 0.1
2017-Oct-12 13:30N 39°52' W 075°13'0 0.1
2017-Oct-12 13:01N 39°52' W 075°13'0 0.0
2017-Oct-12 12:30N 39°52' W 075°13'0 0.1
2017-Oct-12 12:01N 39°52' W 075°13'0 0.1
2017-Oct-12 11:31N 39°52' W 075°13'0 0.0
2017-Oct-12 11:00N 39°52' W 075°13'0 0.1
2017-Oct-12 10:31N 39°52' W 075°13'0 0.1
2017-Oct-12 10:01N 39°52' W 075°13'0 0.2
2017-Oct-12 09:31N 39°52' W 075°12'0 0.0
2017-Oct-12 09:01N 39°52' W 075°12'0 0.1
2017-Oct-12 08:30N 39°52' W 075°12'0 0.5
2017-Oct-12 08:01N 39°52' W 075°13'4 8.7
2017-Oct-12 07:31N 39°51' W 075°18'5 9.9
2017-Oct-12 07:01N 39°49' W 075°24'5 9.1
2017-Oct-12 06:30N 39°46' W 075°29'5 9.2
2017-Oct-12 06:01N 39°42' W 075°31'4 8.9
2017-Oct-12 05:30N 39°38' W 075°34'4 8.2
2017-Oct-12 05:01N 39°34' W 075°33'5 9.2
2017-Oct-12 04:30N 39°33' W 075°39'510.2
2017-Oct-12 04:01N 39°32' W 075°45'4 8.7
2017-Oct-12 03:30N 39°32' W 075°51'4 8.7
2017-Oct-12 03:00N 39°30' W 075°56'5 9.2
2017-Oct-12 02:31N 39°26' W 076°00'4 8.9
2017-Oct-12 02:01N 39°23' W 076°04'4 8.9
2017-Oct-12 01:31N 39°21' W 076°09'4 8.4
2017-Oct-12 01:00N 39°18' W 076°13'4 8.5
2017-Oct-12 00:30N 39°14' W 076°14'4 8.9
2017-Oct-12 00:00N 39°10' W 076°18'3 6.4
2017-Oct-11 23:30N 39°09' W 076°21'4 8.5
2017-Oct-11 23:00N 39°11' W 076°26'4 8.5
2017-Oct-11 22:30N 39°13' W 076°31'3 5.0
2017-Oct-11 22:00N 39°13' W 076°35'0 0.2
2017-Oct-11 21:30N 39°13' W 076°35'0 0.0
2017-Oct-11 20:58N 39°13' W 076°35'0 0.0
2017-Oct-11 20:28N 39°13' W 076°35'0 0.0
2017-Oct-11 19:58N 39°13' W 076°35'0 0.0
2017-Oct-11 19:28N 39°13' W 076°35'0 0.0
2017-Oct-11 18:58N 39°13' W 076°35'0 0.0
2017-Oct-11 18:28N 39°13' W 076°35'0 0.0
2017-Oct-11 17:58N 39°13' W 076°35'0 0.0
2017-Oct-11 17:28N 39°13' W 076°35'0 0.0
2017-Oct-11 16:58N 39°13' W 076°35'1 0.1
2017-Oct-10 23:58N 39°14' W 076°33'0 0.0
2017-Oct-10 23:28N 39°14' W 076°33'0 0.1
2017-Oct-10 22:58N 39°14' W 076°33'0 0.0
2017-Oct-10 22:28N 39°14' W 076°33'0 0.0
2017-Oct-10 21:58N 39°14' W 076°33'0 0.0
2017-Oct-10 21:28N 39°14' W 076°33'0 0.0
2017-Oct-10 20:58N 39°14' W 076°33'0 0.0
2017-Oct-10 20:28N 39°14' W 076°33'0 0.0
2017-Oct-10 19:58N 39°14' W 076°33'0 0.0
2017-Oct-10 19:28N 39°14' W 076°33'0 0.0
2017-Oct-10 18:58N 39°14' W 076°33'0 0.0
2017-Oct-10 18:28N 39°14' W 076°33'0 0.0
2017-Oct-10 17:58N 39°14' W 076°33'0 0.0
2017-Oct-10 17:28N 39°14' W 076°33'0 0.1
2017-Oct-10 16:58N 39°14' W 076°33'0 0.1
2017-Oct-10 16:31N 39°14' W 076°33'1 2.5
2017-Oct-10 16:00N 39°13' W 076°32'4 8.5
2017-Oct-10 15:31N 39°11' W 076°27'4 8.8
2017-Oct-10 15:00N 39°09' W 076°22'7 7.4
2017-Oct-10 14:00N 39°14' W 076°14'4 8.5
2017-Oct-10 13:30N 39°18' W 076°13'4 8.5
2017-Oct-10 13:00N 39°21' W 076°09'4 8.9
2017-Oct-10 12:30N 39°23' W 076°04'5 9.0
2017-Oct-10 12:00N 39°26' W 075°60'5 9.2
2017-Oct-10 11:30N 39°30' W 075°56'4 9.0
2017-Oct-10 11:00N 39°32' W 075°51'4 7.4
2017-Oct-10 10:30N 39°32' W 075°46'5 9.4
2017-Oct-10 10:00N 39°33' W 075°40'5 9.1
2017-Oct-10 09:31N 39°34' W 075°34'3 6.5
2017-Oct-10 09:00N 39°37' W 075°35'4 8.1
2017-Oct-10 08:30N 39°40' W 075°32'4 7.7
2017-Oct-10 08:00N 39°44' W 075°30'4 7.0
2017-Oct-10 07:30N 39°47' W 075°28'3 7.0
2017-Oct-10 07:01N 39°49' W 075°24'2 4.9
2017-Oct-10 06:30N 39°50' W 075°21'3 6.4
2017-Oct-10 06:01N 39°51' W 075°17'4 7.3
2017-Oct-10 05:31N 39°52' W 075°13'4 7.8
2017-Oct-10 05:00N 39°54' W 075°08'0 0.2
2017-Oct-10 04:30N 39°54' W 075°08'0 0.0
2017-Oct-10 04:00N 39°54' W 075°08'0 0.0
2017-Oct-10 03:30N 39°54' W 075°08'0 0.0
2017-Oct-10 03:00N 39°54' W 075°08'0 0.0
2017-Oct-10 02:30N 39°54' W 075°08'0 0.0
2017-Oct-10 02:00N 39°54' W 075°08'0 0.0
2017-Oct-10 01:27N 39°54' W 075°08'0 0.0
2017-Oct-10 00:57N 39°54' W 075°08'0 0.0
2017-Oct-10 00:30N 39°54' W 075°08'0 0.0
2017-Oct-10 00:00N 39°54' W 075°08'0 0.0
2017-Oct-09 23:30N 39°54' W 075°08'0 0.0
2017-Oct-09 23:00N 39°54' W 075°08'0 0.0
2017-Oct-09 22:30N 39°54' W 075°08'0 0.0
2017-Oct-09 22:00N 39°54' W 075°08'0 0.0
2017-Oct-09 21:30N 39°54' W 075°08'0 0.0
2017-Oct-09 21:00N 39°54' W 075°08'0 0.0
2017-Oct-09 20:30N 39°54' W 075°08'0 0.0
2017-Oct-09 20:01N 39°54' W 075°08'0 0.0
2017-Oct-09 19:30N 39°54' W 075°08'0 0.0
2017-Oct-09 19:00N 39°54' W 075°08'0 0.0
2017-Oct-09 18:30N 39°54' W 075°08'0 0.0
2017-Oct-09 18:00N 39°54' W 075°08'  
Track history (hours):
 
Tides and Currents Weather Stations Pressure Air Temp Water Temp Dewpoint Dewpoint Depression Visibility Wind Speed Wind Dir Waves Ship Positions

Genesis Valiant

Owner: Genesis Marine, LLC, Houston, TX. More information available from US FCC via Universal Licensing System and Coast Guard Vessel Documentation Center.

Last reported at 2017-Oct-19 18:00 UTC. Time now 2017-Oct-19 18:20 UTC.
Position N 39°14' W 076°33'.

Length 30 m; draft 5 m.

Type: Towing. MMSI: 338495000.

Date/timePositionNaut miles runAvg speedWind from/ knotsBaromVisibWave heightAir tempDewpointWater temp
2017-Oct-19 18:00N 39°14' W 076°33'0 0.0
2017-Oct-19 17:31N 39°14' W 076°33'0 0.1
2017-Oct-19 17:00N 39°14' W 076°33'0 0.0
2017-Oct-19 16:31N 39°14' W 076°33'0 0.0
2017-Oct-19 16:01N 39°14' W 076°33'0 0.0
2017-Oct-19 15:31N 39°14' W 076°33'0 0.0
2017-Oct-19 15:00N 39°14' W 076°33'0 0.0
2017-Oct-19 14:31N 39°14' W 076°33'0 0.0
2017-Oct-19 14:00N 39°14' W 076°33'0 0.0
2017-Oct-19 13:30N 39°14' W 076°33'0 0.1
2017-Oct-19 13:01N 39°13' W 076°33'3 6.0
2017-Oct-19 12:30N 39°12' W 076°30'4 8.3
2017-Oct-19 12:00N 39°10' W 076°25'4 7.5
2017-Oct-19 11:30N 39°09' W 076°20'4 7.2
2017-Oct-19 11:00N 39°11' W 076°17'4 7.6
2017-Oct-19 10:30N 39°14' W 076°14'4 7.5
2017-Oct-19 10:00N 39°18' W 076°13'4 7.0
2017-Oct-19 09:30N 39°21' W 076°10'4 7.4
2017-Oct-19 09:00N 39°23' W 076°06'4 8.1
2017-Oct-19 08:30N 39°25' W 076°02'4 8.6
2017-Oct-19 08:00N 39°28' W 075°58'4 8.7
2017-Oct-19 07:30N 39°31' W 075°54'4 8.0
2017-Oct-19 07:00N 39°32' W 075°49'5 9.0
2017-Oct-19 06:30N 39°33' W 075°43'4 9.0
2017-Oct-19 06:00N 39°33' W 075°37'3 6.6
2017-Oct-19 05:30N 39°35' W 075°33'3 6.8
2017-Oct-19 05:00N 39°38' W 075°34'4 7.4
2017-Oct-19 04:30N 39°41' W 075°31'4 7.4
2017-Oct-19 04:01N 39°44' W 075°30'3 6.7
2017-Oct-19 03:30N 39°47' W 075°27'3 6.8
2017-Oct-19 03:00N 39°49' W 075°24'3 6.2
2017-Oct-19 02:30N 39°51' W 075°21'3 6.5
2017-Oct-19 02:00N 39°51' W 075°16'4 7.1
2017-Oct-19 01:30N 39°53' W 075°12'3 5.9
2017-Oct-19 00:58N 39°54' W 075°08'0 0.1
2017-Oct-19 00:30N 39°54' W 075°08'0 0.0
2017-Oct-19 00:00N 39°54' W 075°08'0 0.0
2017-Oct-18 23:30N 39°54' W 075°08'0 0.0
2017-Oct-18 23:00N 39°54' W 075°08'0 0.0
2017-Oct-18 22:30N 39°54' W 075°08'0 0.0
2017-Oct-18 22:00N 39°54' W 075°08'0 0.0
2017-Oct-18 21:28N 39°54' W 075°08'0 0.0
2017-Oct-18 20:58N 39°54' W 075°08'0 0.0
2017-Oct-18 20:28N 39°54' W 075°08'0 0.0
2017-Oct-18 19:58N 39°54' W 075°08'0 0.0
2017-Oct-18 19:28N 39°54' W 075°08'0 0.0
2017-Oct-18 19:00N 39°54' W 075°08'2 3.8
2017-Oct-18 18:28N 39°53' W 075°11'0 0.0
2017-Oct-18 17:58N 39°53' W 075°11'0 0.0
2017-Oct-18 17:28N 39°53' W 075°11'0 0.0
2017-Oct-18 16:58N 39°53' W 075°11'0 0.0
2017-Oct-18 16:28N 39°53' W 075°11'0 0.2
2017-Oct-18 15:58N 39°53' W 075°11'0 0.0
2017-Oct-18 15:28N 39°53' W 075°11'0 0.0
2017-Oct-18 14:58N 39°53' W 075°11'0 0.0
2017-Oct-18 13:58N 39°53' W 075°11'0 0.0
2017-Oct-18 13:28N 39°53' W 075°11'0 0.1
2017-Oct-18 12:58N 39°53' W 075°11'2 4.2
2017-Oct-18 12:31N 39°53' W 075°08'0 0.6
2017-Oct-18 12:00N 39°54' W 075°08'0 0.0
2017-Oct-18 11:30N 39°54' W 075°08'0 0.0
2017-Oct-18 11:00N 39°54' W 075°08'0 0.0
2017-Oct-18 10:30N 39°54' W 075°08'0 0.0
2017-Oct-18 10:00N 39°54' W 075°08'0 0.0
2017-Oct-18 09:30N 39°54' W 075°08'0 0.0
2017-Oct-18 09:00N 39°54' W 075°08'0 0.0
2017-Oct-18 08:30N 39°54' W 075°08'0 0.0
2017-Oct-18 08:00N 39°54' W 075°08'0 0.0
2017-Oct-18 07:30N 39°54' W 075°08'0 0.0
2017-Oct-18 07:00N 39°54' W 075°08'0 0.0
2017-Oct-18 06:30N 39°54' W 075°08'0 0.0
2017-Oct-18 06:00N 39°54' W 075°08'0 0.0
2017-Oct-18 05:30N 39°54' W 075°08'1 1.3
2017-Oct-18 05:00N 39°53' W 075°09'3 5.4
2017-Oct-18 04:31N 39°53' W 075°12'1 3.0
2017-Oct-18 04:00N 39°52' W 075°13'0 0.0
2017-Oct-18 03:30N 39°52' W 075°13'0 0.0
2017-Oct-18 03:01N 39°52' W 075°13'0 0.0
2017-Oct-18 02:31N 39°52' W 075°13'0 0.0
2017-Oct-18 02:01N 39°52' W 075°13'0 0.0
2017-Oct-18 01:30N 39°52' W 075°13'0 0.0
2017-Oct-18 01:01N 39°52' W 075°13'0 0.0
2017-Oct-18 00:30N 39°52' W 075°13'0 0.1
2017-Oct-18 00:01N 39°52' W 075°14'0 0.2
2017-Oct-17 23:31N 39°52' W 075°14'0 0.1
2017-Oct-17 23:00N 39°52' W 075°14'0 0.0
2017-Oct-17 22:31N 39°52' W 075°14'0 0.1
2017-Oct-17 22:00N 39°52' W 075°14'0 0.0
2017-Oct-17 21:30N 39°52' W 075°14'0 0.1
2017-Oct-17 21:01N 39°51' W 075°14'0 0.0
2017-Oct-17 20:30N 39°51' W 075°14'0 0.0
2017-Oct-17 20:00N 39°51' W 075°14'0 0.0
2017-Oct-17 19:30N 39°51' W 075°14'0 0.1
2017-Oct-17 19:01N 39°52' W 075°14'0 0.1
2017-Oct-17 18:31N 39°52' W 075°14'0 0.1
2017-Oct-17 18:00N 39°52' W 075°14'0 0.1
2017-Oct-17 17:31N 39°52' W 075°13'0 0.0
2017-Oct-17 17:01N 39°52' W 075°13'0 0.0
2017-Oct-17 16:30N 39°52' W 075°13'0 0.0
2017-Oct-17 16:00N 39°52' W 075°13'0 0.0
2017-Oct-17 15:30N 39°52' W 075°13'0 0.0
2017-Oct-17 15:00N 39°52' W 075°13'0 0.0
2017-Oct-17 14:31N 39°52' W 075°13'0 0.1
2017-Oct-17 14:00N 39°52' W 075°13'0 0.1
2017-Oct-17 13:31N 39°52' W 075°13'0 0.0
2017-Oct-17 13:00N 39°52' W 075°13'0 0.0
2017-Oct-17 12:31N 39°52' W 075°13'0 0.1
2017-Oct-17 12:01N 39°51' W 075°13'0 0.1
2017-Oct-17 11:30N 39°51' W 075°14'0 0.1
2017-Oct-17 11:01N 39°51' W 075°14'0 0.0
2017-Oct-17 10:31N 39°51' W 075°14'0 0.0
2017-Oct-17 10:01N 39°51' W 075°14'0 0.0
2017-Oct-17 09:30N 39°51' W 075°14'0 0.0
2017-Oct-17 09:01N 39°51' W 075°14'0 0.0
2017-Oct-17 08:31N 39°51' W 075°14'0 0.0
2017-Oct-17 08:00N 39°51' W 075°14'0 0.0
2017-Oct-17 07:31N 39°51' W 075°14'0 0.0
2017-Oct-17 07:00N 39°51' W 075°14'0 0.0
2017-Oct-17 06:31N 39°51' W 075°14'0 0.0
2017-Oct-17 06:01N 39°51' W 075°14'0 0.1
2017-Oct-17 05:31N 39°51' W 075°14'0 0.0
2017-Oct-17 05:01N 39°51' W 075°14'0 0.1
2017-Oct-17 04:30N 39°51' W 075°14'0 0.0
2017-Oct-17 04:00N 39°51' W 075°13'0 0.0
2017-Oct-17 03:30N 39°51' W 075°13'0 0.1
2017-Oct-17 03:01N 39°52' W 075°13'0 0.1
2017-Oct-17 02:30N 39°52' W 075°13'0 0.0
2017-Oct-17 02:00N 39°52' W 075°13'0 0.0
2017-Oct-17 01:31N 39°52' W 075°13'0 0.0
2017-Oct-17 01:00N 39°52' W 075°13'0 0.0
2017-Oct-17 00:31N 39°52' W 075°13'0 0.0
2017-Oct-17 00:01N 39°52' W 075°13'0 0.1
2017-Oct-16 23:31N 39°52' W 075°13'0 0.1
2017-Oct-16 23:00N 39°51' W 075°14'0 0.0
2017-Oct-16 22:31N 39°51' W 075°14'0 0.1
2017-Oct-16 22:01N 39°51' W 075°14'0 0.1
2017-Oct-16 21:31N 39°51' W 075°14'0 0.0
2017-Oct-16 21:00N 39°51' W 075°14'0 0.1
2017-Oct-16 20:30N 39°51' W 075°14'0 0.0
2017-Oct-16 20:00N 39°51' W 075°14'0 0.0
2017-Oct-16 19:31N 39°51' W 075°14'0 0.0
2017-Oct-16 19:00N 39°51' W 075°14'0 0.0
2017-Oct-16 18:30N 39°51' W 075°14'0 0.0
2017-Oct-16 18:01N 39°51' W 075°14'0 0.0
2017-Oct-16 17:30N 39°51' W 075°14'0 0.1
2017-Oct-16 17:01N 39°51' W 075°14'0 0.1
2017-Oct-16 16:30N 39°51' W 075°13'0 0.1
2017-Oct-16 16:01N 39°51' W 075°14'0 0.1
2017-Oct-16 15:30N 39°51' W 075°13'0 0.1
2017-Oct-16 15:01N 39°51' W 075°14'1 1.2
2017-Oct-16 14:00N 39°51' W 075°15'0 0.0
2017-Oct-16 13:30N 39°51' W 075°15'0 0.0
2017-Oct-16 13:01N 39°51' W 075°15'0 0.0
2017-Oct-16 12:31N 39°51' W 075°15'0 0.0
2017-Oct-16 12:00N 39°51' W 075°15'0 0.0
2017-Oct-16 11:31N 39°51' W 075°15'0 0.0
2017-Oct-16 11:00N 39°51' W 075°15'0 0.0
2017-Oct-16 10:30N 39°51' W 075°15'0 0.0
2017-Oct-16 10:00N 39°51' W 075°15'0 0.0
2017-Oct-16 09:30N 39°51' W 075°15'0 0.0
2017-Oct-16 09:00N 39°51' W 075°15'0 0.0
2017-Oct-16 08:31N 39°51' W 075°15'0 0.0
2017-Oct-16 08:00N 39°51' W 075°15'0 0.0
2017-Oct-16 07:30N 39°51' W 075°15'0 0.0
2017-Oct-16 07:01N 39°51' W 075°15'0 0.0
2017-Oct-16 06:30N 39°51' W 075°15'0 0.0
2017-Oct-16 06:00N 39°51' W 075°15'0 0.0
2017-Oct-16 05:31N 39°51' W 075°15'0 0.0
2017-Oct-16 05:01N 39°51' W 075°15'0 0.0
2017-Oct-16 04:31N 39°51' W 075°15'0 0.0
2017-Oct-16 04:01N 39°51' W 075°15'0 0.0
2017-Oct-16 03:31N 39°51' W 075°15'0 0.0
2017-Oct-16 03:00N 39°51' W 075°15'0 0.0
2017-Oct-16 02:31N 39°51' W 075°15'0 0.0
2017-Oct-16 02:00N 39°51' W 075°15'0 0.0
2017-Oct-16 01:31N 39°51' W 075°15'0 0.0
2017-Oct-16 01:00N 39°51' W 075°15'0 0.0
2017-Oct-16 00:31N 39°51' W 075°15'0 0.0
2017-Oct-16 00:00N 39°51' W 075°15'0 0.0
2017-Oct-15 23:31N 39°51' W 075°15'0 0.5
2017-Oct-15 23:00N 39°51' W 075°15'3 7.0
2017-Oct-15 22:30N 39°53' W 075°11'2 4.3
2017-Oct-15 22:01N 39°54' W 075°08'0 0.2
2017-Oct-15 21:30N 39°54' W 075°08'0 0.0
2017-Oct-15 21:00N 39°54' W 075°08'0 0.0
2017-Oct-15 20:31N 39°54' W 075°08'0 0.0
2017-Oct-15 20:01N 39°54' W 075°08'0 0.0
2017-Oct-15 19:31N 39°54' W 075°08'0 0.0
2017-Oct-15 19:01N 39°54' W 075°08'0 0.0
2017-Oct-15 18:30N 39°54' W 075°08'0 0.0
2017-Oct-15 18:00N 39°54' W 075°08'0 0.0
2017-Oct-15 17:30N 39°54' W 075°08'0 0.0
2017-Oct-15 17:00N 39°54' W 075°08'0 0.0
2017-Oct-15 16:30N 39°54' W 075°08'0 0.1
2017-Oct-15 16:00N 39°54' W 075°08'0 0.0
2017-Oct-15 15:30N 39°54' W 075°08'0 0.0
2017-Oct-15 15:00N 39°54' W 075°08'0 0.0
2017-Oct-15 14:00N 39°54' W 075°08'0 0.0
2017-Oct-15 13:30N 39°54' W 075°08'0 0.0
2017-Oct-15 13:00N 39°54' W 075°08'0 0.0
2017-Oct-15 12:30N 39°54' W 075°08'0 0.0
2017-Oct-15 12:00N 39°54' W 075°08'0 0.0
2017-Oct-15 11:30N 39°54' W 075°08'0 0.0
2017-Oct-15 11:00N 39°54' W 075°08'0 0.0
2017-Oct-15 10:30N 39°54' W 075°08'0 0.0
2017-Oct-15 10:00N 39°54' W 075°08'0 0.0
2017-Oct-15 09:30N 39°54' W 075°08'0 0.0
2017-Oct-15 09:00N 39°54' W 075°08'0 0.0
2017-Oct-15 08:30N 39°54' W 075°08'0 0.0
2017-Oct-15 08:00N 39°54' W 075°08'0 0.0
2017-Oct-15 07:30N 39°54' W 075°08'0 0.0
2017-Oct-15 07:00N 39°54' W 075°08'0 0.0
2017-Oct-15 06:30N 39°54' W 075°08'0 0.0
2017-Oct-15 06:00N 39°54' W 075°08'0 0.0
2017-Oct-15 05:31N 39°54' W 075°08'0 0.0
2017-Oct-15 05:00N 39°54' W 075°08'0 0.0
2017-Oct-15 04:30N 39°54' W 075°08'0 0.0
2017-Oct-15 04:00N 39°54' W 075°08'0 0.0
2017-Oct-15 03:30N 39°54' W 075°08'0 0.0
2017-Oct-15 03:00N 39°54' W 075°08'0 0.1
2017-Oct-15 02:30N 39°54' W 075°08'0 0.0
2017-Oct-15 02:00N 39°54' W 075°08'0 0.0
2017-Oct-15 01:30N 39°54' W 075°08'0 0.0
2017-Oct-15 01:00N 39°54' W 075°08'0 0.0
2017-Oct-15 00:30N 39°54' W 075°08'0 0.0
2017-Oct-15 00:00N 39°54' W 075°08'0 0.0
2017-Oct-14 23:30N 39°54' W 075°08'0 0.0
2017-Oct-14 23:00N 39°54' W 075°08'0 0.0
2017-Oct-14 22:30N 39°54' W 075°08'0 0.0
2017-Oct-14 22:00N 39°54' W 075°08'0 0.0
2017-Oct-14 21:30N 39°54' W 075°08'0 0.2
2017-Oct-14 21:01N 39°54' W 075°08'2 3.8
2017-Oct-14 20:30N 39°53' W 075°10'2 4.8
2017-Oct-14 20:00N 39°52' W 075°13'2 4.8
2017-Oct-14 19:30N 39°51' W 075°16'2 4.9
2017-Oct-14 19:00N 39°51' W 075°19'3 5.2
2017-Oct-14 18:30N 39°50' W 075°22'2 5.0
2017-Oct-14 18:01N 39°48' W 075°25'3 5.2
2017-Oct-14 17:30N 39°47' W 075°28'2 4.8
2017-Oct-14 17:00N 39°45' W 075°30'2 4.6
2017-Oct-14 16:31N 39°43' W 075°31'3 5.1
2017-Oct-14 16:01N 39°40' W 075°32'3 5.2
2017-Oct-14 15:31N 39°38' W 075°34'2 4.5
2017-Oct-14 15:00N 39°36' W 075°34'3 5.2
2017-Oct-14 14:31N 39°34' W 075°33'3 5.2
2017-Oct-14 14:01N 39°35' W 075°36'0 0.0
2017-Oct-14 13:30N 39°35' W 075°36'0 0.0
2017-Oct-14 13:01N 39°35' W 075°36'0 0.0
2017-Oct-14 12:31N 39°35' W 075°36'0 0.0
2017-Oct-14 12:00N 39°35' W 075°36'0 0.0
2017-Oct-14 11:30N 39°35' W 075°36'0 0.0
2017-Oct-14 11:00N 39°35' W 075°36'0 0.0
2017-Oct-14 10:31N 39°35' W 075°36'0 0.0
2017-Oct-14 10:01N 39°35' W 075°36'0 0.0
2017-Oct-14 09:31N 39°35' W 075°36'0 0.0
2017-Oct-14 09:00N 39°35' W 075°36'0 0.0
2017-Oct-14 08:31N 39°35' W 075°36'0 0.0
2017-Oct-14 08:01N 39°35' W 075°36'0 0.0
2017-Oct-14 07:31N 39°35' W 075°36'0 0.0
2017-Oct-14 07:01N 39°35' W 075°36'0 0.0
2017-Oct-14 06:31N 39°35' W 075°36'0 0.0
2017-Oct-14 06:01N 39°35' W 075°36'0 0.0
2017-Oct-14 05:31N 39°35' W 075°36'0 0.0
2017-Oct-14 05:01N 39°35' W 075°36'0 0.0
2017-Oct-14 04:30N 39°35' W 075°36'0 0.0
2017-Oct-14 04:00N 39°35' W 075°36'0 0.0
2017-Oct-14 03:31N 39°35' W 075°36'0 0.0
2017-Oct-14 03:00N 39°35' W 075°36'0 0.0
2017-Oct-14 02:31N 39°35' W 075°36'0 0.0
2017-Oct-14 02:01N 39°35' W 075°36'0 0.0
2017-Oct-14 01:28N 39°35' W 075°36'0 0.0
2017-Oct-14 01:01N 39°35' W 075°36'0 0.0
2017-Oct-14 00:30N 39°35' W 075°36'1 1.6
2017-Oct-14 00:01N 39°35' W 075°35'2 4.4
2017-Oct-13 23:30N 39°33' W 075°33'0 0.0
2017-Oct-13 23:01N 39°33' W 075°33'0 0.0
2017-Oct-13 22:31N 39°33' W 075°33'0 0.0
2017-Oct-13 22:01N 39°33' W 075°33'0 0.0
2017-Oct-13 21:31N 39°33' W 075°33'0 0.0
2017-Oct-13 21:01N 39°33' W 075°33'0 0.0
2017-Oct-13 20:31N 39°33' W 075°33'0 0.0
2017-Oct-13 20:01N 39°33' W 075°33'0 0.1
2017-Oct-13 19:31N 39°33' W 075°33'0 0.1
2017-Oct-13 19:01N 39°33' W 075°33'0 0.1
2017-Oct-13 18:31N 39°33' W 075°33'0 0.2
2017-Oct-13 18:00N 39°33' W 075°33'0 0.1
2017-Oct-13 17:30N 39°33' W 075°33'0 0.0
2017-Oct-13 17:01N 39°33' W 075°33'0 0.0
2017-Oct-13 16:30N 39°33' W 075°33'0 0.0
2017-Oct-13 16:01N 39°33' W 075°33'0 0.0
2017-Oct-13 15:31N 39°33' W 075°33'0 0.1
2017-Oct-13 15:01N 39°33' W 075°33'4 7.2
2017-Oct-13 14:30N 39°36' W 075°34'5 9.5
2017-Oct-13 14:00N 39°40' W 075°32'5 9.8
2017-Oct-13 13:30N 39°45' W 075°29'4 8.7
2017-Oct-13 13:01N 39°48' W 075°25'4 8.1
2017-Oct-13 12:31N 39°50' W 075°21'4 7.5
2017-Oct-13 12:00N 39°51' W 075°16'1 1.8
2017-Oct-13 11:30N 39°51' W 075°15'0 0.0
2017-Oct-13 11:00N 39°51' W 075°15'0 0.0
2017-Oct-13 10:31N 39°51' W 075°15'0 0.0
2017-Oct-13 10:01N 39°51' W 075°15'0 0.0
2017-Oct-13 09:30N 39°51' W 075°15'0 0.0
2017-Oct-13 09:00N 39°51' W 075°15'0 0.0
2017-Oct-13 08:30N 39°51' W 075°15'0 0.0
2017-Oct-13 08:00N 39°51' W 075°15'0 0.0
2017-Oct-13 07:31N 39°51' W 075°15'0 0.0
2017-Oct-13 07:00N 39°51' W 075°15'0 0.0
2017-Oct-13 06:31N 39°51' W 075°15'0 0.0
2017-Oct-13 06:01N 39°51' W 075°15'0 0.0
2017-Oct-13 05:30N 39°51' W 075°15'0 0.0
2017-Oct-13 05:00N 39°51' W 075°15'0 0.0
2017-Oct-13 04:30N 39°51' W 075°15'0 0.0
2017-Oct-13 04:01N 39°51' W 075°15'0 0.0
2017-Oct-13 03:31N 39°51' W 075°15'0 0.0
2017-Oct-13 03:01N 39°51' W 075°15'0 0.0
2017-Oct-13 02:31N 39°51' W 075°15'0 0.0
2017-Oct-13 02:00N 39°51' W 075°15'0 0.0
2017-Oct-13 01:30N 39°51' W 075°15'0 0.0
2017-Oct-13 01:01N 39°51' W 075°15'0 0.0
2017-Oct-13 00:30N 39°51' W 075°15'0 0.0
2017-Oct-13 00:00N 39°51' W 075°15'0 0.6
2017-Oct-12 23:30N 39°51' W 075°15'2 3.8
2017-Oct-12 23:00N 39°52' W 075°13'0 0.0
2017-Oct-12 22:31N 39°52' W 075°13'0 0.0
2017-Oct-12 22:00N 39°52' W 075°13'0 0.0
2017-Oct-12 21:31N 39°52' W 075°13'0 0.1
2017-Oct-12 21:01N 39°52' W 075°13'0 0.0
2017-Oct-12 20:30N 39°52' W 075°13'0 0.1
2017-Oct-12 20:01N 39°52' W 075°13'0 0.1
2017-Oct-12 19:31N 39°52' W 075°13'0 0.1
2017-Oct-12 19:01N 39°52' W 075°13'0 0.1
2017-Oct-12 18:31N 39°52' W 075°13'0 0.0
2017-Oct-12 18:01N 39°52' W 075°13'0 0.1
2017-Oct-12 17:30N 39°52' W 075°13'0 0.0
2017-Oct-12 17:01N 39°52' W 075°13'0 0.0
2017-Oct-12 16:30N 39°52' W 075°13'0 0.0
2017-Oct-12 16:01N 39°52' W 075°13'0 0.0
2017-Oct-12 15:31N 39°52' W 075°13'0 0.1
2017-Oct-12 15:00N 39°52' W 075°13'0 0.0
2017-Oct-12 14:31N 39°52' W 075°13'0 0.1
2017-Oct-12 14:00N 39°52' W 075°13'0 0.1
2017-Oct-12 13:30N 39°52' W 075°13'0 0.1
2017-Oct-12 13:01N 39°52' W 075°13'0 0.0
2017-Oct-12 12:30N 39°52' W 075°13'0 0.1
2017-Oct-12 12:01N 39°52' W 075°13'0 0.1
2017-Oct-12 11:31N 39°52' W 075°13'0 0.0
2017-Oct-12 11:00N 39°52' W 075°13'0 0.1
2017-Oct-12 10:31N 39°52' W 075°13'0 0.1
2017-Oct-12 10:01N 39°52' W 075°13'0 0.2
2017-Oct-12 09:31N 39°52' W 075°12'0 0.0
2017-Oct-12 09:01N 39°52' W 075°12'0 0.1
2017-Oct-12 08:30N 39°52' W 075°12'0 0.5
2017-Oct-12 08:01N 39°52' W 075°13'4 8.7
2017-Oct-12 07:31N 39°51' W 075°18'5 9.9
2017-Oct-12 07:01N 39°49' W 075°24'5 9.1
2017-Oct-12 06:30N 39°46' W 075°29'5 9.2
2017-Oct-12 06:01N 39°42' W 075°31'4 8.9
2017-Oct-12 05:30N 39°38' W 075°34'4 8.2
2017-Oct-12 05:01N 39°34' W 075°33'5 9.2
2017-Oct-12 04:30N 39°33' W 075°39'510.2
2017-Oct-12 04:01N 39°32' W 075°45'4 8.7
2017-Oct-12 03:30N 39°32' W 075°51'4 8.7
2017-Oct-12 03:00N 39°30' W 075°56'5 9.2
2017-Oct-12 02:31N 39°26' W 076°00'4 8.9
2017-Oct-12 02:01N 39°23' W 076°04'4 8.9
2017-Oct-12 01:31N 39°21' W 076°09'4 8.4
2017-Oct-12 01:00N 39°18' W 076°13'4 8.5
2017-Oct-12 00:30N 39°14' W 076°14'4 8.9
2017-Oct-12 00:00N 39°10' W 076°18'3 6.4
2017-Oct-11 23:30N 39°09' W 076°21'4 8.5
2017-Oct-11 23:00N 39°11' W 076°26'4 8.5
2017-Oct-11 22:30N 39°13' W 076°31'3 5.0
2017-Oct-11 22:00N 39°13' W 076°35'0 0.2
2017-Oct-11 21:30N 39°13' W 076°35'0 0.0
2017-Oct-11 20:58N 39°13' W 076°35'0 0.0
2017-Oct-11 20:28N 39°13' W 076°35'0 0.0
2017-Oct-11 19:58N 39°13' W 076°35'0 0.0
2017-Oct-11 19:28N 39°13' W 076°35'0 0.0
2017-Oct-11 18:58N 39°13' W 076°35'0 0.0
2017-Oct-11 18:28N 39°13' W 076°35'0 0.0
2017-Oct-11 17:58N 39°13' W 076°35'0 0.0
2017-Oct-11 17:28N 39°13' W 076°35'0 0.0
2017-Oct-11 16:58N 39°13' W 076°35'1 0.1
2017-Oct-10 23:58N 39°14' W 076°33'0 0.0
2017-Oct-10 23:28N 39°14' W 076°33'0 0.1
2017-Oct-10 22:58N 39°14' W 076°33'0 0.0
2017-Oct-10 22:28N 39°14' W 076°33'0 0.0
2017-Oct-10 21:58N 39°14' W 076°33'0 0.0
2017-Oct-10 21:28N 39°14' W 076°33'0 0.0
2017-Oct-10 20:58N 39°14' W 076°33'0 0.0
2017-Oct-10 20:28N 39°14' W 076°33'0 0.0
2017-Oct-10 19:58N 39°14' W 076°33'0 0.0
2017-Oct-10 19:28N 39°14' W 076°33'0 0.0
2017-Oct-10 18:58N 39°14' W 076°33'0 0.0
2017-Oct-10 18:28N 39°14' W 076°33'0 0.0
2017-Oct-10 17:58N 39°14' W 076°33'0 0.0
2017-Oct-10 17:28N 39°14' W 076°33'0 0.1
2017-Oct-10 16:58N 39°14' W 076°33'0 0.1
2017-Oct-10 16:31N 39°14' W 076°33'1 2.5
2017-Oct-10 16:00N 39°13' W 076°32'4 8.5
2017-Oct-10 15:31N 39°11' W 076°27'4 8.8
2017-Oct-10 15:00N 39°09' W 076°22'7 7.4
2017-Oct-10 14:00N 39°14' W 076°14'4 8.5
2017-Oct-10 13:30N 39°18' W 076°13'4 8.5
2017-Oct-10 13:00N 39°21' W 076°09'4 8.9
2017-Oct-10 12:30N 39°23' W 076°04'5 9.0
2017-Oct-10 12:00N 39°26' W 075°60'5 9.2
2017-Oct-10 11:30N 39°30' W 075°56'4 9.0
2017-Oct-10 11:00N 39°32' W 075°51'4 7.4
2017-Oct-10 10:30N 39°32' W 075°46'5 9.4
2017-Oct-10 10:00N 39°33' W 075°40'5 9.1
2017-Oct-10 09:31N 39°34' W 075°34'3 6.5
2017-Oct-10 09:00N 39°37' W 075°35'4 8.1
2017-Oct-10 08:30N 39°40' W 075°32'4 7.7
2017-Oct-10 08:00N 39°44' W 075°30'4 7.0
2017-Oct-10 07:30N 39°47' W 075°28'3 7.0
2017-Oct-10 07:01N 39°49' W 075°24'2 4.9
2017-Oct-10 06:30N 39°50' W 075°21'3 6.4
2017-Oct-10 06:01N 39°51' W 075°17'4 7.3
2017-Oct-10 05:31N 39°52' W 075°13'4 7.8
2017-Oct-10 05:00N 39°54' W 075°08'0 0.2
2017-Oct-10 04:30N 39°54' W 075°08'0 0.0
2017-Oct-10 04:00N 39°54' W 075°08'0 0.0
2017-Oct-10 03:30N 39°54' W 075°08'0 0.0
2017-Oct-10 03:00N 39°54' W 075°08'0 0.0
2017-Oct-10 02:30N 39°54' W 075°08'0 0.0
2017-Oct-10 02:00N 39°54' W 075°08'0 0.0
2017-Oct-10 01:27N 39°54' W 075°08'0 0.0
2017-Oct-10 00:57N 39°54' W 075°08'0 0.0
2017-Oct-10 00:30N 39°54' W 075°08'0 0.0
2017-Oct-10 00:00N 39°54' W 075°08'0 0.0
2017-Oct-09 23:30N 39°54' W 075°08'0 0.0
2017-Oct-09 23:00N 39°54' W 075°08'0 0.0
2017-Oct-09 22:30N 39°54' W 075°08'0 0.0
2017-Oct-09 22:00N 39°54' W 075°08'0 0.0
2017-Oct-09 21:30N 39°54' W 075°08'0 0.0
2017-Oct-09 21:00N 39°54' W 075°08'0 0.0
2017-Oct-09 20:30N 39°54' W 075°08'0 0.0
2017-Oct-09 20:01N 39°54' W 075°08'0 0.0
2017-Oct-09 19:30N 39°54' W 075°08'0 0.0
2017-Oct-09 19:00N 39°54' W 075°08'0 0.0
2017-Oct-09 18:30N 39°54' W 075°08'0 0.0
2017-Oct-09 18:00N 39°54' W 075°08'  

Dump ship's entire track history